Time;durP1;ratioP1;P1;durP2;ratioP2;P2;SDS_P1;SDS_P2;PMS_P1;PMS_P2;Temp;Humidity;BMP_temperature;BMP_pressure;BME280_temperature;BME280_humidity;BME280_pressure;Samples;Min_cycle;Max_cycle;Signal;HPM_P1;HPM_P2
2023/09/27 05:47:24;;;;;;;9.27;7.03;;;;;;;;;;5493465;22;20534;-80
2023/09/27 05:49:50;;;;;;;9.60;6.55;;;;;;;;;;5076973;28;20398;-81
2023/09/27 05:52:17;;;;;;;7.35;5.43;;;;;;;;;;5076756;28;20024;-81
2023/09/27 05:54:42;;;;;;;8.52;6.25;;;;;;;;;;5059128;28;20035;-80
2023/09/27 05:57:08;;;;;;;9.45;7.13;;;;;;;;;;5076871;28;20025;-80
2023/09/27 05:59:34;;;;;;;6.97;5.88;;;;;;;;;;5076744;28;20020;-81
2023/09/27 06:01:59;;;;;;;8.73;6.15;;;;;;;;;;5077109;28;20024;-85
2023/09/27 06:04:25;;;;;;;14.70;6.80;;;;;;;;;;5077887;28;20033;-84
2023/09/27 06:06:51;;;;;;;9.40;6.43;;;;;;;;;;5077919;28;20033;-84
2023/09/27 06:09:17;;;;;;;7.80;5.85;;;;;;;;;;5077567;28;20036;-84
2023/09/27 09:31:49;;;;;;;6.50;5.00;;;;;;;;;;5069902;28;20084;-83
2023/09/27 09:34:15;;;;;;;6.00;5.30;;;;;;;;;;5073403;28;20040;-81
2023/09/27 09:36:40;;;;;;;7.93;5.28;;;;;;;;;;5073115;28;20025;-85
2023/09/27 09:39:14;;;;;;;6.45;5.30;;;;;;;;;;5073160;28;20055;-87
2023/09/27 09:41:51;;;;;;;6.68;4.55;;;;;;;;;;5072970;28;20101;-82
2023/09/27 09:44:20;;;;;;;6.13;4.68;;;;;;;;;;5073045;28;20024;-84
2023/09/27 09:46:47;;;;;;;5.07;4.47;;;;;;;;;;5073141;28;20410;-81
2023/09/27 09:49:16;;;;;;;7.97;5.28;;;;;;;;;;5072966;28;20028;-84
2023/09/27 09:51:46;;;;;;;9.85;5.18;;;;;;;;;;5072904;28;20100;-83
2023/09/27 09:54:17;;;;;;;5.78;5.05;;;;;;;;;;5074075;28;20352;-83
2023/09/27 09:56:44;;;;;;;6.15;4.78;;;;;;;;;;5072996;28;20020;-80
2023/09/27 09:59:13;;;;;;;6.90;4.80;;;;;;;;;;5072969;28;20036;-80
2023/09/27 10:01:42;;;;;;;6.30;4.72;;;;;;;;;;5073321;28;20078;-80
2023/09/27 10:04:08;;;;;;;;;;;;;;;;;;5073323;28;20028;-88
2023/09/27 10:06:34;;;;;;;7.95;4.63;;;;;;;;;;5074904;28;19912;-81
2023/09/27 10:09:05;;;;;;;7.47;5.13;;;;;;;;;;5076861;28;20111;-86
2023/09/27 10:11:33;;;;;;;8.48;5.28;;;;;;;;;;5076657;28;20032;-83
2023/09/27 10:13:59;;;;;;;5.40;4.88;;;;;;;;;;5076339;28;20033;-80
2023/09/27 10:16:25;;;;;;;8.05;4.78;;;;;;;;;;5076325;28;20021;-82
2023/09/27 10:18:54;;;;;;;7.85;4.88;;;;;;;;;;5076320;28;20036;-82
2023/09/27 10:21:19;;;;;;;7.85;4.65;;;;;;;;;;5076598;28;20472;-80
2023/09/27 10:23:47;;;;;;;6.63;4.68;;;;;;;;;;5076512;28;20051;-83
2023/09/27 10:26:16;;;;;;;8.80;5.38;;;;;;;;;;5058019;28;20021;-82
2023/09/27 10:29:03;;;;;;;7.65;5.32;;;;;;;;;;5058160;28;20382;-84
2023/09/27 10:31:33;;;;;;;7.88;5.40;;;;;;;;;;5076007;28;20032;-79
2023/09/27 10:33:59;;;;;;;5.47;4.97;;;;;;;;;;5075954;28;20032;-79
2023/09/27 10:36:24;;;;;;;11.02;6.30;;;;;;;;;;5076546;28;20029;-79
2023/09/27 10:38:50;;;;;;;6.57;5.15;;;;;;;;;;5058140;28;20378;-79
2023/09/27 10:41:42;;;;;;;7.80;5.05;;;;;;;;;;5075967;28;20106;-80
2023/09/27 10:44:08;;;;;;;7.43;5.05;;;;;;;;;;5075697;28;20027;-80
2023/09/27 10:46:41;;;;;;;6.38;4.85;;;;;;;;;;5075987;28;20383;-80
2023/09/27 10:49:06;;;;;;;7.95;4.72;;;;;;;;;;5075949;28;20016;-83
2023/09/27 10:51:32;;;;;;;5.40;4.53;;;;;;;;;;5075933;28;20091;-80
2023/09/27 10:53:57;;;;;;;11.55;4.75;;;;;;;;;;5075828;28;20051;-84
2023/09/27 10:56:23;;;;;;;7.35;4.90;;;;;;;;;;5075800;28;20481;-81
2023/09/27 10:58:49;;;;;;;7.43;4.95;;;;;;;;;;5075403;28;20025;-81
2023/09/27 11:01:23;;;;;;;6.85;4.82;;;;;;;;;;5075518;28;20029;-80
2023/09/27 11:03:57;;;;;;;8.90;4.80;;;;;;;;;;5075734;28;20120;-80
2023/09/27 11:06:22;;;;;;;12.85;5.00;;;;;;;;;;5057679;28;20036;-80
2023/09/27 11:08:48;;;;;;;6.13;5.00;;;;;;;;;;5075339;28;20031;-80
2023/09/27 11:11:14;;;;;;;7.72;4.82;;;;;;;;;;5075146;28;20107;-80
2023/09/27 11:13:44;;;;;;;7.78;4.68;;;;;;;;;;5075261;28;20020;-80
2023/09/27 11:16:13;;;;;;;7.97;4.60;;;;;;;;;;5075403;28;20031;-80
2023/09/27 11:18:48;;;;;;;6.47;5.20;;;;;;;;;;5075032;28;20025;-80
2023/09/27 11:21:14;;;;;;;6.45;5.30;;;;;;;;;;5075146;28;20035;-81
2023/09/27 11:24:04;;;;;;;6.95;5.60;;;;;;;;;;5075125;28;20372;-80
2023/09/27 11:26:32;;;;;;;7.63;4.90;;;;;;;;;;5075077;28;20028;-80
2023/09/27 11:29:03;;;;;;;5.95;4.72;;;;;;;;;;5074946;28;20424;-80
2023/09/27 11:31:36;;;;;;;7.25;4.68;;;;;;;;;;5056984;28;20039;-80
2023/09/27 11:34:15;;;;;;;8.48;5.10;;;;;;;;;;5075227;28;20036;-80
2023/09/27 11:36:45;;;;;;;5.38;4.75;;;;;;;;;;5074945;28;20047;-81
2023/09/27 11:39:13;;;;;;;5.93;4.70;;;;;;;;;;5074572;28;20025;-83
2023/09/27 11:41:39;;;;;;;6.95;4.95;;;;;;;;;;5074814;28;20020;-80
2023/09/27 11:44:23;;;;;;;6.03;4.57;;;;;;;;;;5075256;28;20371;-79
2023/09/27 11:46:49;;;;;;;9.00;4.90;;;;;;;;;;5057655;28;20474;-81
2023/09/27 11:49:18;;;;;;;5.70;4.75;;;;;;;;;;5074437;28;20047;-81
2023/09/27 11:51:44;;;;;;;;;;;;;;;;;;5075094;28;20533;-81
2023/09/27 11:54:12;;;;;;;5.60;5.05;;;;;;;;;;5074600;28;20074;-81
2023/09/27 11:56:38;;;;;;;9.05;5.40;;;;;;;;;;5074340;28;20078;-81
2023/09/27 11:59:04;;;;;;;5.63;4.50;;;;;;;;;;5056473;28;20059;-82
2023/09/27 12:01:29;;;;;;;7.65;4.38;;;;;;;;;;5074395;28;20510;-81
2023/09/27 12:03:55;;;;;;;5.10;4.53;;;;;;;;;;5074300;28;20029;-82
2023/09/27 12:06:21;;;;;;;4.88;4.07;;;;;;;;;;5074304;28;20020;-81
2023/09/27 12:08:47;;;;;;;7.88;4.43;;;;;;;;;;5074044;28;20024;-80
2023/09/27 12:11:12;;;;;;;7.13;5.18;;;;;;;;;;5074168;28;20109;-79
2023/09/27 12:13:39;;;;;;;7.18;4.55;;;;;;;;;;5074100;28;20128;-80
2023/09/27 12:16:05;;;;;;;7.13;4.70;;;;;;;;;;5074338;28;20107;-82
2023/09/27 12:18:30;;;;;;;8.32;4.07;;;;;;;;;;5074038;28;20107;-82
2023/09/27 12:20:56;;;;;;;6.50;4.47;;;;;;;;;;5074323;28;20405;-81
2023/09/27 12:23:21;;;;;;;6.38;4.50;;;;;;;;;;5074030;28;20024;-82
2023/09/27 12:25:47;;;;;;;8.30;5.13;;;;;;;;;;5073914;28;20035;-80
2023/09/27 12:28:14;;;;;;;8.25;4.82;;;;;;;;;;5073493;28;20466;-80
2023/09/27 12:30:43;;;;;;;4.80;4.32;;;;;;;;;;5074090;28;20437;-80
2023/09/27 12:33:09;;;;;;;;;;;;;;;;;;5074084;28;20037;-79
2023/09/27 12:35:35;;;;;;;5.10;4.47;;;;;;;;;;5073893;28;20389;-79
2023/09/27 12:38:06;;;;;;;5.93;4.05;;;;;;;;;;5073782;28;20058;-79
2023/09/27 12:40:32;;;;;;;7.00;4.40;;;;;;;;;;5073626;28;20095;-79
2023/09/27 12:42:58;;;;;;;7.72;5.28;;;;;;;;;;5073730;28;20020;-82
2023/09/27 12:45:23;;;;;;;7.60;4.22;;;;;;;;;;5073529;28;20032;-80
2023/09/27 12:47:49;;;;;;;9.85;4.40;;;;;;;;;;5073733;28;20116;-80
2023/09/27 12:50:15;;;;;;;6.05;4.43;;;;;;;;;;5073488;28;20111;-80
2023/09/27 12:52:42;;;;;;;5.80;3.90;;;;;;;;;;5073583;28;20023;-79
2023/09/27 12:55:09;;;;;;;4.35;3.92;;;;;;;;;;5073735;28;20032;-81
2023/09/27 12:57:34;;;;;;;8.02;4.07;;;;;;;;;;5073460;28;20029;-82
2023/09/27 13:00:00;;;;;;;7.13;4.07;;;;;;;;;;5073532;28;20542;-79
2023/09/27 13:02:26;;;;;;;4.43;3.72;;;;;;;;;;5073916;28;20024;-81
2023/09/27 13:04:52;;;;;;;4.90;3.58;;;;;;;;;;5073814;28;20032;-79
2023/09/27 13:07:18;;;;;;;5.78;4.07;;;;;;;;;;5073473;28;20029;-81
2023/09/27 13:09:43;;;;;;;3.97;3.03;;;;;;;;;;5073330;28;20025;-79
2023/09/27 13:12:09;;;;;;;4.82;3.65;;;;;;;;;;5073577;28;20032;-82
2023/09/27 13:14:34;;;;;;;5.35;3.58;;;;;;;;;;5073526;28;20039;-79
2023/09/27 13:17:00;;;;;;;6.20;4.00;;;;;;;;;;5073258;28;20382;-79
2023/09/27 13:19:26;;;;;;;4.47;3.67;;;;;;;;;;5073531;28;20028;-79
2023/09/27 13:21:51;;;;;;;6.43;4.20;;;;;;;;;;5073341;28;20489;-79
2023/09/27 13:24:17;;;;;;;5.05;4.32;;;;;;;;;;5073463;28;20070;-79
2023/09/27 13:26:42;;;;;;;4.53;3.85;;;;;;;;;;5073241;28;20024;-79
2023/09/27 13:29:08;;;;;;;5.72;3.63;;;;;;;;;;5073268;28;20063;-79
2023/09/27 13:31:34;;;;;;;6.43;4.60;;;;;;;;;;5054987;28;20024;-81
2023/09/27 13:34:00;;;;;;;6.28;4.18;;;;;;;;;;5073163;28;20079;-81
2023/09/27 13:36:27;;;;;;;7.88;4.68;;;;;;;;;;5073187;28;20482;-81
2023/09/27 13:38:53;;;;;;;7.32;4.07;;;;;;;;;;5073105;28;20094;-81
2023/09/27 13:41:20;;;;;;;5.60;3.92;;;;;;;;;;5076760;28;20514;-81
2023/09/27 13:43:47;;;;;;;3.92;3.53;;;;;;;;;;5077000;28;20082;-81
2023/09/27 13:46:13;;;;;;;5.63;4.93;;;;;;;;;;5077420;28;20558;-81
2023/09/27 13:48:38;;;;;;;4.45;4.05;;;;;;;;;;5077028;28;20108;-81
2023/09/27 13:51:04;;;;;;;4.82;4.05;;;;;;;;;;5076913;28;20387;-81
2023/09/27 13:53:29;;;;;;;5.97;4.22;;;;;;;;;;5076874;28;20028;-81
2023/09/27 13:55:55;;;;;;;5.93;4.43;;;;;;;;;;5076850;28;20052;-80
2023/09/27 13:58:20;;;;;;;6.15;4.60;;;;;;;;;;5076854;28;20032;-80
2023/09/27 14:00:46;;;;;;;5.10;4.22;;;;;;;;;;5077085;28;20032;-81
2023/09/27 14:03:13;;;;;;;6.75;4.28;;;;;;;;;;5076897;28;20027;-81
2023/09/27 14:05:39;;;;;;;4.53;4.13;;;;;;;;;;5076655;28;20036;-81
2023/09/27 14:08:04;;;;;;;6.75;4.57;;;;;;;;;;5076614;28;20082;-81
2023/09/27 14:10:30;;;;;;;5.43;4.80;;;;;;;;;;5076647;28;20033;-80
2023/09/27 14:12:58;;;;;;;7.05;4.55;;;;;;;;;;5076403;28;20433;-81
2023/09/27 14:15:25;;;;;;;5.25;4.40;;;;;;;;;;5076448;28;20060;-80
2023/09/27 14:17:50;;;;;;;6.53;4.45;;;;;;;;;;5058433;28;20067;-80
2023/09/27 14:20:16;;;;;;;4.75;4.20;;;;;;;;;;5076444;28;20052;-80
2023/09/27 14:22:43;;;;;;;4.75;4.35;;;;;;;;;;5076381;28;20386;-81
2023/09/27 14:25:09;;;;;;;6.90;4.15;;;;;;;;;;5076240;28;20107;-80
2023/09/27 14:27:36;;;;;;;5.47;4.32;;;;;;;;;;5080117;28;20032;-81
2023/09/27 14:30:04;;;;;;;5.38;4.43;;;;;;;;;;5075674;28;20059;-80
2023/09/27 14:32:30;;;;;;;6.83;5.20;;;;;;;;;;5058341;28;20182;-80
2023/09/27 14:34:55;;;;;;;4.93;4.32;;;;;;;;;;5076033;28;20519;-80
2023/09/27 14:37:21;;;;;;;5.60;4.47;;;;;;;;;;5076081;28;20029;-80
2023/09/27 14:39:47;;;;;;;6.05;4.75;;;;;;;;;;5076013;28;20029;-80
2023/09/27 14:42:12;;;;;;;7.07;4.90;;;;;;;;;;5058155;28;20059;-80
2023/09/27 14:44:38;;;;;;;7.07;4.70;;;;;;;;;;5075935;28;20076;-80
2023/09/27 14:47:04;;;;;;;6.95;4.55;;;;;;;;;;5075710;28;20025;-80
2023/09/27 14:49:30;;;;;;;5.07;4.30;;;;;;;;;;5075732;28;20065;-80
2023/09/27 14:51:56;;;;;;;6.63;4.68;;;;;;;;;;5075229;28;20060;-80
2023/09/27 14:54:22;;;;;;;5.05;4.55;;;;;;;;;;5075945;28;20048;-80
2023/09/27 14:56:47;;;;;;;5.00;4.60;;;;;;;;;;5075741;28;20033;-81
2023/09/27 14:59:13;;;;;;;7.18;4.97;;;;;;;;;;5075571;28;20040;-80
2023/09/27 15:01:38;;;;;;;7.93;5.50;;;;;;;;;;5057753;28;20479;-80
2023/09/27 15:04:05;;;;;;;7.03;4.88;;;;;;;;;;5057548;28;20035;-80
2023/09/27 15:06:32;;;;;;;4.63;4.20;;;;;;;;;;5075412;28;20021;-80
2023/09/27 15:08:58;;;;;;;6.38;4.72;;;;;;;;;;5057510;28;20496;-80
2023/09/27 15:11:24;;;;;;;6.82;4.60;;;;;;;;;;5075515;28;20064;-81
2023/09/27 15:13:51;;;;;;;7.32;4.65;;;;;;;;;;5075515;28;20021;-80
2023/09/27 15:16:16;;;;;;;6.50;4.75;;;;;;;;;;5075158;28;20025;-80
2023/09/27 15:18:43;;;;;;;5.32;4.22;;;;;;;;;;5075437;28;20027;-80
2023/09/27 15:21:10;;;;;;;6.15;5.03;;;;;;;;;;5075380;28;20108;-80
2023/09/27 15:23:36;;;;;;;7.60;4.82;;;;;;;;;;5075250;28;20028;-80
2023/09/27 15:26:02;;;;;;;6.13;4.90;;;;;;;;;;5075525;28;20028;-80
2023/09/27 15:28:28;;;;;;;6.55;4.88;;;;;;;;;;5074851;28;20107;-80
2023/09/27 15:30:53;;;;;;;5.05;4.43;;;;;;;;;;5074981;28;20537;-80
2023/09/27 15:33:21;;;;;;;8.75;5.10;;;;;;;;;;5074724;28;20127;-80
2023/09/27 15:35:53;;;;;;;6.60;4.88;;;;;;;;;;5075023;28;20036;-80
2023/09/27 15:38:18;;;;;;;4.80;4.38;;;;;;;;;;5074919;28;20028;-80
2023/09/27 15:40:47;;;;;;;6.05;4.70;;;;;;;;;;5074986;28;20344;-80
2023/09/27 15:43:13;;;;;;;6.05;4.78;;;;;;;;;;5074909;28;20028;-80
2023/09/27 15:45:39;;;;;;;6.40;4.85;;;;;;;;;;5074597;28;20391;-80
2023/09/27 15:48:07;;;;;;;6.95;5.13;;;;;;;;;;5074556;28;20028;-80
2023/09/27 15:50:35;;;;;;;5.47;4.40;;;;;;;;;;5074439;28;20029;-80
2023/09/27 15:53:00;;;;;;;8.80;5.18;;;;;;;;;;5074798;28;20056;-80
2023/09/27 15:55:26;;;;;;;7.15;4.97;;;;;;;;;;5074513;28;20467;-80
2023/09/27 15:57:53;;;;;;;5.90;4.90;;;;;;;;;;5074499;28;20534;-80
2023/09/27 16:00:18;;;;;;;6.88;4.80;;;;;;;;;;5074255;28;20107;-80
2023/09/27 16:02:44;;;;;;;10.50;5.53;;;;;;;;;;5073836;28;20051;-80
2023/09/27 16:05:11;;;;;;;5.18;4.63;;;;;;;;;;5074204;28;20368;-80
2023/09/27 16:07:40;;;;;;;5.03;4.55;;;;;;;;;;5074362;28;20017;-81
2023/09/27 16:10:11;;;;;;;5.43;4.30;;;;;;;;;;5074046;28;20047;-81
2023/09/27 16:12:37;;;;;;;6.47;5.38;;;;;;;;;;5074193;28;20040;-81
2023/09/27 16:15:04;;;;;;;7.22;5.30;;;;;;;;;;5074112;28;20020;-80
2023/09/27 16:17:30;;;;;;;6.90;5.53;;;;;;;;;;5056608;28;20487;-80
2023/09/27 16:19:56;;;;;;;7.30;5.43;;;;;;;;;;5074280;28;20036;-80
2023/09/27 16:22:22;;;;;;;6.15;4.43;;;;;;;;;;5073984;28;20536;-80
2023/09/27 16:24:48;;;;;;;6.55;5.18;;;;;;;;;;5074070;28;20107;-80
2023/09/27 16:27:13;;;;;;;7.63;5.90;;;;;;;;;;5073877;28;20073;-80
2023/09/27 16:29:39;;;;;;;7.93;5.13;;;;;;;;;;5073910;28;20051;-80
2023/09/27 16:32:04;;;;;;;9.05;5.68;;;;;;;;;;5073613;28;20040;-80
2023/09/27 16:34:30;;;;;;;5.68;4.63;;;;;;;;;;5074317;28;20024;-84
2023/09/27 16:36:57;;;;;;;7.75;5.20;;;;;;;;;;5056409;28;20024;-81
2023/09/27 16:39:23;;;;;;;5.10;4.60;;;;;;;;;;5073963;28;20025;-81
2023/09/27 16:41:49;;;;;;;7.70;5.05;;;;;;;;;;5074069;28;20039;-82
2023/09/27 16:44:14;;;;;;;6.50;4.30;;;;;;;;;;5073686;28;20467;-81
2023/09/27 16:46:40;;;;;;;5.43;4.88;;;;;;;;;;5073694;28;20032;-82
2023/09/27 16:49:05;;;;;;;5.95;5.15;;;;;;;;;;5073885;28;20024;-82
2023/09/27 16:51:31;;;;;;;6.93;4.97;;;;;;;;;;5055806;28;20024;-81
2023/09/27 16:53:56;;;;;;;6.30;4.88;;;;;;;;;;5075903;28;20165;-82
2023/09/27 16:56:22;;;;;;;4.82;4.38;;;;;;;;;;5075203;28;20107;-81
2023/09/27 16:58:48;;;;;;;7.60;4.50;;;;;;;;;;5074297;28;20047;-81
2023/09/27 17:01:17;;;;;;;8.18;4.57;;;;;;;;;;5073505;28;20129;-80
2023/09/27 17:03:43;;;;;;;5.32;4.43;;;;;;;;;;5073969;28;20043;-81
2023/09/27 17:06:08;;;;;;;7.90;4.68;;;;;;;;;;5073124;28;20085;-79
2023/09/27 17:08:34;;;;;;;6.70;4.80;;;;;;;;;;5073508;28;20426;-83
2023/09/27 17:11:00;;;;;;;5.68;4.75;;;;;;;;;;5073633;28;20039;-81
2023/09/27 17:13:25;;;;;;;5.57;4.22;;;;;;;;;;5073220;28;20024;-81
2023/09/27 17:15:51;;;;;;;7.60;4.90;;;;;;;;;;5060155;28;20463;-80
2023/09/27 17:18:16;;;;;;;6.05;4.30;;;;;;;;;;5080178;28;20033;-80
2023/09/27 17:20:42;;;;;;;9.90;4.88;;;;;;;;;;5080149;28;20048;-81
2023/09/27 17:23:07;;;;;;;6.50;4.57;;;;;;;;;;5080399;28;20478;-81
2023/09/27 17:25:33;;;;;;;6.78;4.88;;;;;;;;;;5080076;28;20048;-80
2023/09/27 17:27:59;;;;;;;8.23;4.97;;;;;;;;;;5061991;28;20107;-80
2023/09/27 17:30:24;;;;;;;6.47;4.68;;;;;;;;;;5079889;28;20126;-82
2023/09/27 17:32:50;;;;;;;7.07;4.80;;;;;;;;;;5080088;28;20067;-82
2023/09/27 17:35:15;;;;;;;7.22;4.65;;;;;;;;;;5061931;28;20040;-83
2023/09/27 17:37:41;;;;;;;5.05;4.53;;;;;;;;;;5079720;28;20036;-79
2023/09/27 17:40:07;;;;;;;5.38;4.50;;;;;;;;;;5079855;28;20052;-81
2023/09/27 17:42:36;;;;;;;6.80;4.35;;;;;;;;;;5080245;28;20111;-80
2023/09/27 17:45:02;;;;;;;6.43;4.45;;;;;;;;;;5079909;28;20471;-87
2023/09/27 17:47:28;;;;;;;5.80;4.72;;;;;;;;;;5062291;28;20463;-80
2023/09/27 17:49:53;;;;;;;7.43;4.47;;;;;;;;;;5080177;28;20078;-82
2023/09/27 17:52:19;;;;;;;8.43;4.60;;;;;;;;;;5079600;28;20024;-79
2023/09/27 17:54:44;;;;;;;5.38;4.47;;;;;;;;;;5079812;28;20028;-87
2023/09/27 17:57:10;;;;;;;4.82;4.35;;;;;;;;;;5079722;28;20029;-83
2023/09/27 17:59:35;;;;;;;8.00;4.35;;;;;;;;;;5079770;28;20025;-82
2023/09/27 18:02:02;;;;;;;4.57;3.92;;;;;;;;;;5079754;28;20459;-83
2023/09/27 18:04:29;;;;;;;7.57;4.13;;;;;;;;;;5080169;28;20087;-82
2023/09/27 18:06:54;;;;;;;6.57;3.92;;;;;;;;;;5061669;28;20475;-82
2023/09/27 18:09:20;;;;;;;6.78;4.45;;;;;;;;;;5061860;28;20035;-84
2023/09/27 18:11:45;;;;;;;6.30;4.40;;;;;;;;;;5080081;28;20044;-80
2023/09/27 18:14:11;;;;;;;9.18;5.93;;;;;;;;;;5079389;28;20029;-80
2023/09/27 18:16:36;;;;;;;10.85;5.43;;;;;;;;;;5079412;28;20024;-81
2023/09/27 18:19:02;;;;;;;8.07;4.80;;;;;;;;;;5079537;28;20105;-82
2023/09/27 18:21:28;;;;;;;9.38;4.20;;;;;;;;;;5079584;28;20033;-81
2023/09/27 18:23:54;;;;;;;8.38;4.82;;;;;;;;;;5061620;28;20074;-81
2023/09/27 18:26:22;;;;;;;7.68;5.20;;;;;;;;;;5077354;28;20477;-81
2023/09/27 18:28:49;;;;;;;6.07;5.00;;;;;;;;;;5076156;28;20040;-81
2023/09/27 18:31:14;;;;;;;7.95;4.72;;;;;;;;;;5076205;28;20081;-81
2023/09/27 18:33:40;;;;;;;7.70;4.65;;;;;;;;;;5075989;28;20127;-81
2023/09/27 18:36:06;;;;;;;5.07;4.55;;;;;;;;;;5058283;28;20035;-82
2023/09/27 18:38:32;;;;;;;4.82;4.03;;;;;;;;;;5076008;28;20021;-82
2023/09/27 18:40:58;;;;;;;5.32;4.82;;;;;;;;;;5076332;28;20394;-83
2023/09/27 18:43:23;;;;;;;6.07;5.30;;;;;;;;;;5075907;28;20147;-82
2023/09/27 18:45:49;;;;;;;5.28;4.30;;;;;;;;;;5076089;28;20028;-82
2023/09/27 18:48:18;;;;;;;6.93;5.13;;;;;;;;;;5076098;28;20022;-84
2023/09/27 18:50:50;;;;;;;5.70;4.30;;;;;;;;;;5057860;28;20459;-84
2023/09/27 18:53:16;;;;;;;7.53;4.50;;;;;;;;;;5075938;28;20033;-84
2023/09/27 18:55:42;;;;;;;7.70;5.18;;;;;;;;;;5075888;28;20382;-85
2023/09/27 18:58:13;;;;;;;7.50;5.00;;;;;;;;;;5075725;28;20104;-84
2023/09/27 19:00:40;;;;;;;7.30;4.53;;;;;;;;;;5075820;28;20028;-81
2023/09/27 19:03:05;;;;;;;7.53;4.43;;;;;;;;;;5076104;28;20052;-85
2023/09/27 19:05:31;;;;;;;5.20;4.70;;;;;;;;;;5075886;28;20420;-84
2023/09/27 19:07:57;;;;;;;5.88;4.35;;;;;;;;;;5075826;28;20526;-82
2023/09/27 19:10:23;;;;;;;4.93;4.53;;;;;;;;;;5075410;28;20475;-84
2023/09/27 19:12:49;;;;;;;9.05;5.28;;;;;;;;;;5075598;28;20032;-84
2023/09/27 19:15:16;;;;;;;5.20;4.70;;;;;;;;;;5057746;28;20558;-83
2023/09/27 19:17:41;;;;;;;6.80;4.88;;;;;;;;;;5075736;28;20066;-81
2023/09/27 19:20:08;;;;;;;5.15;4.57;;;;;;;;;;5075440;28;20052;-81
2023/09/27 19:22:34;;;;;;;5.80;4.30;;;;;;;;;;5075239;28;20021;-81
2023/09/27 19:25:00;;;;;;;8.23;5.13;;;;;;;;;;5075289;28;20036;-83
2023/09/27 19:27:26;;;;;;;8.60;5.40;;;;;;;;;;5075510;28;20490;-83
2023/09/27 19:29:52;;;;;;;5.38;4.70;;;;;;;;;;5075188;28;20021;-83
2023/09/27 19:32:17;;;;;;;6.38;4.68;;;;;;;;;;5075450;28;20052;-83
2023/09/27 19:34:44;;;;;;;7.72;4.85;;;;;;;;;;5074871;28;20379;-84
2023/09/27 19:37:09;;;;;;;8.70;4.63;;;;;;;;;;5074645;28;20028;-80
2023/09/27 19:39:35;;;;;;;5.03;4.15;;;;;;;;;;5074569;28;20025;-81
2023/09/27 19:42:02;;;;;;;7.65;4.65;;;;;;;;;;5074817;28;20040;-83
2023/09/27 19:44:27;;;;;;;6.50;5.30;;;;;;;;;;5075145;28;20044;-84
2023/09/27 19:46:54;;;;;;;5.65;4.78;;;;;;;;;;5074739;28;20070;-81
2023/09/27 19:49:19;;;;;;;5.30;4.68;;;;;;;;;;5074927;28;20024;-82
2023/09/27 19:51:45;;;;;;;5.60;5.10;;;;;;;;;;5074809;28;20376;-81
2023/09/27 19:54:11;;;;;;;4.40;4.00;;;;;;;;;;5074768;28;20066;-79
2023/09/27 19:56:40;;;;;;;7.97;4.78;;;;;;;;;;5074565;28;20097;-80
2023/09/27 19:59:06;;;;;;;6.85;4.90;;;;;;;;;;5074654;28;20036;-79
2023/09/27 20:01:33;;;;;;;5.68;5.18;;;;;;;;;;5074624;28;20041;-80
2023/09/27 20:03:59;;;;;;;5.70;5.05;;;;;;;;;;5074458;28;20051;-80
2023/09/27 20:06:25;;;;;;;5.97;4.75;;;;;;;;;;5074620;28;20474;-81
2023/09/27 20:08:51;;;;;;;6.97;4.78;;;;;;;;;;5063757;28;20430;-79
2023/09/27 20:11:16;;;;;;;6.93;4.78;;;;;;;;;;5054360;28;20029;-79
2023/09/27 20:13:42;;;;;;;5.40;4.57;;;;;;;;;;5068840;28;20070;-79
2023/09/27 20:16:08;;;;;;;6.18;4.75;;;;;;;;;;5074393;28;20378;-79
2023/09/27 20:18:33;;;;;;;5.28;4.63;;;;;;;;;;5073732;28;20507;-79
2023/09/27 20:20:59;;;;;;;6.07;4.50;;;;;;;;;;5074046;28;20027;-79
2023/09/27 20:23:24;;;;;;;5.28;4.78;;;;;;;;;;5073829;28;20059;-79
2023/09/27 20:25:50;;;;;;;7.60;5.25;;;;;;;;;;5046930;28;20033;-79
2023/09/27 20:28:15;;;;;;;8.05;5.55;;;;;;;;;;5053878;28;20029;-79
2023/09/27 20:30:41;;;;;;;6.72;5.70;;;;;;;;;;5053688;28;20061;-79
2023/09/27 20:33:06;;;;;;;8.60;5.50;;;;;;;;;;5053791;28;20128;-79
2023/09/27 20:35:32;;;;;;;8.43;5.82;;;;;;;;;;5053841;28;20059;-79
2023/09/27 20:37:57;;;;;;;5.95;5.20;;;;;;;;;;5053514;28;20120;-79
2023/09/27 20:40:23;;;;;;;6.22;5.18;;;;;;;;;;5053499;28;20032;-80
2023/09/27 20:42:48;;;;;;;6.28;5.00;;;;;;;;;;5062096;28;20383;-80
2023/09/27 20:45:14;;;;;;;6.25;4.95;;;;;;;;;;5073783;28;20039;-79
2023/09/27 20:47:41;;;;;;;6.00;5.10;;;;;;;;;;5073519;28;20025;-79
2023/09/27 20:50:10;;;;;;;6.07;5.20;;;;;;;;;;5071195;28;20021;-80
2023/09/27 20:52:37;;;;;;;5.70;4.85;;;;;;;;;;5046625;28;20017;-79
2023/09/27 20:55:04;;;;;;;8.85;5.07;;;;;;;;;;5073557;28;20055;-79
2023/09/27 20:57:29;;;;;;;6.68;5.22;;;;;;;;;;5073317;28;20024;-79
2023/09/27 20:59:55;;;;;;;7.38;5.40;;;;;;;;;;5073415;28;20364;-79
2023/09/27 21:02:20;;;;;;;8.40;5.57;;;;;;;;;;5073564;28;20032;-79
2023/09/27 21:04:45;;;;;;;6.25;5.65;;;;;;;;;;5073653;28;20025;-79
2023/09/27 21:07:11;;;;;;;7.00;5.35;;;;;;;;;;5073373;28;20024;-79
2023/09/27 21:09:37;;;;;;;6.55;4.78;;;;;;;;;;5073650;28;20367;-79
2023/09/27 21:12:03;;;;;;;7.63;4.65;;;;;;;;;;5073727;28;20021;-79
2023/09/27 21:14:28;;;;;;;6.18;5.03;;;;;;;;;;5073475;28;20020;-80
2023/09/27 21:16:53;;;;;;;7.20;5.45;;;;;;;;;;5073450;28;20020;-79
2023/09/27 21:19:19;;;;;;;6.68;4.65;;;;;;;;;;5073501;28;20020;-79
2023/09/27 21:21:44;;;;;;;7.88;6.45;;;;;;;;;;5073301;28;20031;-79
2023/09/27 21:24:11;;;;;;;7.78;6.38;;;;;;;;;;5073250;28;20163;-79
2023/09/27 21:26:36;;;;;;;6.93;6.10;;;;;;;;;;5073568;28;20086;-79
2023/09/27 21:29:02;;;;;;;7.40;5.70;;;;;;;;;;5073436;28;20033;-80
2023/09/27 21:31:27;;;;;;;7.65;5.68;;;;;;;;;;5073127;28;20035;-79
2023/09/27 21:33:53;;;;;;;7.10;5.43;;;;;;;;;;5055377;28;20025;-80
2023/09/27 21:36:18;;;;;;;8.88;6.18;;;;;;;;;;5073373;28;20375;-79
2023/09/27 21:38:44;;;;;;;7.20;5.80;;;;;;;;;;5073325;28;20024;-79
2023/09/27 21:41:11;;;;;;;7.78;5.50;;;;;;;;;;5073560;28;20120;-79
2023/09/27 21:43:36;;;;;;;5.82;4.78;;;;;;;;;;5055282;28;20021;-79
2023/09/27 21:46:03;;;;;;;8.18;5.43;;;;;;;;;;5073199;28;20089;-79
2023/09/27 21:48:31;;;;;;;9.27;5.55;;;;;;;;;;5073332;28;20529;-79
2023/09/27 21:50:57;;;;;;;6.13;5.07;;;;;;;;;;5073207;28;20029;-79
2023/09/27 21:53:22;;;;;;;8.20;5.03;;;;;;;;;;5073025;28;20035;-79
2023/09/27 21:55:48;;;;;;;5.95;5.43;;;;;;;;;;5073250;28;20040;-79
2023/09/27 21:58:13;;;;;;;8.82;5.95;;;;;;;;;;5072994;28;20043;-79
2023/09/27 22:00:39;;;;;;;7.18;5.82;;;;;;;;;;5073030;28;20028;-79
2023/09/27 22:03:04;;;;;;;8.45;5.95;;;;;;;;;;5075846;28;20151;-79
2023/09/27 22:05:31;;;;;;;6.95;5.82;;;;;;;;;;5076547;28;20476;-79
2023/09/27 22:07:58;;;;;;;7.43;6.55;;;;;;;;;;5076730;28;20119;-79
2023/09/27 22:10:25;;;;;;;6.53;5.93;;;;;;;;;;5076741;28;20039;-79
2023/09/27 22:12:52;;;;;;;9.65;6.70;;;;;;;;;;5076768;28;20471;-79
2023/09/27 22:15:23;;;;;;;7.55;6.28;;;;;;;;;;5076646;28;20025;-79
2023/09/27 22:17:49;;;;;;;7.68;6.10;;;;;;;;;;5076644;28;20112;-80
2023/09/27 22:20:21;;;;;;;9.20;6.20;;;;;;;;;;5076129;28;20032;-79
2023/09/27 22:22:47;;;;;;;7.95;6.07;;;;;;;;;;5076644;28;20070;-79
2023/09/27 22:25:13;;;;;;;6.28;5.68;;;;;;;;;;5076227;28;20028;-80
2023/09/27 22:27:44;;;;;;;7.07;6.32;;;;;;;;;;5076435;28;20032;-80
2023/09/27 22:30:14;;;;;;;7.47;6.60;;;;;;;;;;5076418;28;20078;-80
2023/09/27 22:32:41;;;;;;;8.40;5.90;;;;;;;;;;5076170;28;20041;-79
2023/09/27 22:35:37;;;;;;;6.88;5.40;;;;;;;;;;5076186;28;20043;-82
